Time;durP1;ratioP1;P1;durP2;ratioP2;P2;SDS_P1;SDS_P2;PMS_P1;PMS_P2;Temp;Humidity;BMP_temperature;BMP_pressure;BME280_temperature;BME280_humidity;BME280_pressure;Samples;Min_cycle;Max_cycle;Signal;HPM_P1;HPM_P2
2022/01/28 00:01:45;;;;;;;10.20;3.70;;;5.80;99.90;;;;;;4976963;28;20046;-59
2022/01/28 00:04:16;;;;;;;22.90;3.88;;;5.80;99.90;;;;;;4975851;28;20062;-60
2022/01/28 00:06:42;;;;;;;10.65;3.15;;;5.80;99.90;;;;;;4978005;28;20049;-60
2022/01/28 00:09:08;;;;;;;14.02;3.53;;;6.00;99.90;;;;;;5012005;28;20034;-59
2022/01/28 00:11:34;;;;;;;10.82;3.17;;;5.90;99.90;;;;;;4994571;28;20046;-60
2022/01/28 00:14:20;;;;;;;11.18;3.00;;;5.70;99.90;;;;;;4994491;28;20041;-60
2022/01/28 00:38:29;;;;;;;15.02;4.00;;;5.70;99.90;;;;;;4974827;28;20065;-60
2022/01/28 00:40:54;;;;;;;16.85;3.78;;;5.70;99.90;;;;;;5001571;28;20371;-60
2022/01/28 00:43:20;;;;;;;15.00;3.50;;;5.70;99.90;;;;;;4994350;28;20132;-60
2022/01/28 00:45:45;;;;;;;15.60;4.28;;;5.60;99.90;;;;;;5010917;28;20116;-60
2022/01/28 00:48:11;;;;;;;15.30;3.50;;;5.80;99.90;;;;;;4994088;28;20046;-60
2022/01/28 00:50:37;;;;;;;10.73;2.80;;;5.90;99.90;;;;;;5010259;28;20061;-60
2022/01/28 00:53:03;;;;;;;15.32;4.38;;;5.80;99.90;;;;;;4978203;28;20053;-60
2022/01/28 00:55:29;;;;;;;11.85;3.72;;;5.80;99.90;;;;;;4992795;28;20360;-60
2022/01/28 00:57:54;;;;;;;19.58;4.38;;;5.80;99.90;;;;;;5010776;28;20407;-60
2022/01/28 01:00:20;;;;;;;14.00;3.47;;;5.80;99.90;;;;;;4978121;28;20110;-60
2022/01/28 01:02:46;;;;;;;13.15;5.45;;;5.70;99.90;;;;;;4993584;28;20061;-60
2022/01/28 01:05:11;;;;;;;21.25;5.18;;;5.70;99.90;;;;;;4993450;28;20046;-59
2022/01/28 01:07:37;;;;;;;17.77;4.55;;;5.70;99.90;;;;;;4993427;28;20052;-60
2022/01/28 01:10:05;;;;;;;19.67;4.65;;;5.70;99.90;;;;;;4993875;28;20091;-59
2022/01/28 01:12:33;;;;;;;17.83;4.63;;;5.70;99.90;;;;;;4973672;28;20129;-60
2022/01/28 01:14:59;;;;;;;21.77;5.53;;;5.80;99.90;;;;;;4991700;28;20046;-60
2022/01/28 01:17:33;;;;;;;17.42;4.32;;;5.60;99.90;;;;;;4991728;28;20049;-60
2022/01/28 01:20:15;;;;;;;22.15;5.05;;;5.60;99.90;;;;;;5006210;28;20052;-60
2022/01/28 01:23:08;;;;;;;21.83;5.68;;;5.60;99.90;;;;;;4976301;28;20614;-60
2022/01/28 01:25:44;;;;;;;30.27;4.95;;;5.60;99.90;;;;;;4993258;28;20095;-60
2022/01/28 01:28:41;;;;;;;15.93;4.30;;;5.70;99.90;;;;;;5010668;28;20049;-60
2022/01/28 01:31:12;;;;;;;15.35;4.22;;;5.70;99.90;;;;;;4993956;28;20107;-60
2022/01/28 01:33:54;;;;;;;15.75;4.68;;;5.70;99.90;;;;;;4993043;28;20046;-60
2022/01/28 01:36:20;;;;;;;16.27;5.03;;;5.80;99.90;;;;;;4993824;28;20054;-60
2022/01/28 01:38:46;;;;;;;16.92;3.92;;;5.80;99.90;;;;;;4992824;28;20121;-60
2022/01/28 01:41:17;;;;;;;11.82;3.42;;;5.80;99.90;;;;;;5010380;28;20117;-60
2022/01/28 01:44:01;;;;;;;20.08;3.97;;;5.80;99.90;;;;;;4984044;28;20125;-60
2022/01/28 01:46:46;;;;;;;20.75;4.53;;;5.80;99.90;;;;;;4974198;28;20520;-60
2022/01/28 01:52:03;;;;;;;22.35;5.53;;;5.80;99.90;;;;;;4983627;28;20050;-60
2022/01/28 01:54:32;;;;;;;23.08;5.95;;;5.80;99.90;;;;;;4992504;28;20046;-60
2022/01/28 01:56:58;;;;;;;18.77;3.80;;;5.80;99.90;;;;;;4993118;28;20125;-60
2022/01/28 01:59:24;;;;;;;27.40;5.57;;;5.80;99.90;;;;;;5010880;28;20604;-59
2022/01/28 02:01:50;;;;;;;16.48;3.75;;;5.80;99.90;;;;;;5009595;28;20044;-60
2022/01/28 02:04:15;;;;;;;19.05;4.75;;;5.90;99.90;;;;;;4993451;28;20091;-60
2022/01/28 02:06:42;;;;;;;15.20;5.05;;;5.90;99.90;;;;;;5010064;28;20054;-60
2022/01/28 02:09:08;;;;;;;18.70;4.38;;;5.90;99.90;;;;;;4992297;28;20049;-60
2022/01/28 02:11:35;;;;;;;20.98;4.78;;;5.90;99.90;;;;;;4993436;28;20042;-60
2022/01/28 02:14:01;;;;;;;16.40;3.95;;;5.90;99.90;;;;;;4992586;28;20046;-60
2022/01/28 02:16:27;;;;;;;23.75;5.20;;;6.00;99.90;;;;;;4991984;28;20525;-60
2022/01/28 02:18:55;;;;;;;30.98;5.25;;;6.00;99.90;;;;;;4993185;28;20081;-60
2022/01/28 02:21:21;;;;;;;21.83;4.93;;;5.90;99.90;;;;;;5001186;28;20050;-60
2022/01/28 02:23:52;;;;;;;21.77;5.28;;;5.90;99.90;;;;;;5005086;28;20392;-60
2022/01/28 02:26:17;;;;;;;24.90;5.53;;;5.90;99.90;;;;;;4992116;28;20081;-60
2022/01/28 02:28:48;;;;;;;17.65;4.32;;;5.80;99.90;;;;;;4990224;28;20070;-60
2022/01/28 02:31:20;;;;;;;24.35;5.43;;;5.90;99.90;;;;;;4972669;28;20041;-60
2022/01/28 02:33:46;;;;;;;28.60;5.80;;;6.00;99.90;;;;;;4973383;28;20046;-60
2022/01/28 02:36:12;;;;;;;28.38;7.25;;;5.90;99.90;;;;;;5005452;28;20115;-60
2022/01/28 02:38:38;;;;;;;19.23;4.47;;;5.90;99.90;;;;;;5005283;28;20042;-60
2022/01/28 02:41:05;;;;;;;25.67;5.70;;;6.00;99.90;;;;;;5005972;28;20049;-60
2022/01/28 02:43:42;;;;;;;23.90;5.50;;;6.40;99.90;;;;;;4989750;28;20072;-60
2022/01/28 02:46:14;;;;;;;18.38;4.88;;;6.40;99.90;;;;;;4973785;28;20038;-60
2022/01/28 02:48:51;;;;;;;17.55;4.53;;;6.40;99.90;;;;;;4993176;28;20038;-60
2022/01/28 02:51:19;;;;;;;17.55;4.85;;;6.40;99.90;;;;;;4991846;28;20050;-60
2022/01/28 02:53:54;;;;;;;16.02;4.85;;;6.40;99.90;;;;;;4991846;28;20046;-60
2022/01/28 02:57:06;;;;;;;17.35;4.20;;;6.40;99.90;;;;;;4992840;28;20048;-60
2022/01/28 02:59:07;;;;;;;19.02;5.03;;;6.30;99.90;;;;;;4995761;28;20050;-60
2022/01/28 03:01:33;;;;;;;16.02;3.45;;;6.40;99.90;;;;;;4992558;28;20098;-60
2022/01/28 03:04:02;;;;;;;26.33;4.78;;;6.20;99.90;;;;;;4984155;28;20042;-60
2022/01/28 03:06:28;;;;;;;22.55;4.45;;;6.20;99.90;;;;;;5004092;28;20050;-60
2022/01/28 03:08:59;;;;;;;16.33;3.55;;;6.20;99.90;;;;;;4972387;28;20042;-60
2022/01/28 03:16:25;;;;;;;14.13;4.10;;;5.90;99.90;;;;;;4973140;28;20046;-60
2022/01/28 03:18:57;;;;;;;19.17;4.28;;;5.90;99.90;;;;;;4999105;28;20042;-60
2022/01/28 03:21:40;;;;;;;13.23;4.25;;;5.80;99.90;;;;;;4956987;28;20068;-60
2022/01/28 03:24:08;;;;;;;16.75;3.67;;;5.80;99.90;;;;;;4973090;28;20088;-60
2022/01/28 03:26:34;;;;;;;15.77;5.00;;;5.80;99.90;;;;;;4971560;28;20060;-60
2022/01/28 03:29:00;;;;;;;18.25;3.88;;;5.80;99.90;;;;;;4990612;28;20125;-60
2022/01/28 03:31:25;;;;;;;17.25;4.38;;;5.80;99.90;;;;;;4992170;28;20386;-60
2022/01/28 03:33:51;;;;;;;17.15;4.30;;;5.80;99.90;;;;;;5008871;28;20034;-60
2022/01/28 03:36:17;;;;;;;21.42;5.18;;;6.50;99.90;;;;;;4975827;28;20038;-60
2022/01/28 03:38:46;;;;;;;40.17;6.50;;;5.70;99.90;;;;;;4991554;28;20045;-60
2022/01/28 03:41:16;;;;;;;18.80;4.45;;;5.70;99.90;;;;;;5008751;28;20115;-60
2022/01/28 03:43:43;;;;;;;16.58;5.28;;;5.70;99.90;;;;;;4991072;28;20117;-60
2022/01/28 03:46:09;;;;;;;14.35;4.88;;;5.90;99.90;;;;;;4972491;28;20125;-60
2022/01/28 03:48:36;;;;;;;17.83;4.95;;;5.90;99.90;;;;;;4971434;28;20444;-60
2022/01/28 03:51:01;;;;;;;25.38;6.90;;;5.90;99.90;;;;;;5004763;28;20054;-60
2022/01/28 03:53:27;;;;;;;23.40;5.75;;;6.10;99.90;;;;;;4971470;28;20175;-60
2022/01/28 03:55:56;;;;;;;23.13;4.93;;;6.10;99.90;;;;;;5004528;28;20038;-60
2022/01/28 03:58:21;;;;;;;21.73;5.25;;;6.20;99.90;;;;;;4972490;28;20042;-60
2022/01/28 04:00:47;;;;;;;19.33;5.55;;;6.30;99.90;;;;;;5003526;28;20053;-60
2022/01/28 04:03:38;;;;;;;25.08;6.53;;;6.20;99.90;;;;;;5004884;28;20152;-60
2022/01/28 04:11:28;;;;;;;16.05;6.85;;;6.10;99.90;;;;;;4984866;28;20045;-59
2022/01/28 04:14:06;;;;;;;18.15;4.68;;;6.00;99.90;;;;;;4991248;28;20529;-60
2022/01/28 04:19:16;;;;;;;21.05;6.25;;;6.20;99.90;;;;;;4993854;28;20049;-60
2022/01/28 04:21:41;;;;;;;18.83;4.28;;;7.00;99.90;;;;;;5011341;28;20911;-60
2022/01/28 04:24:07;;;;;;;23.05;5.25;;;6.00;99.90;;;;;;4995209;28;20030;-60
2022/01/28 04:26:32;;;;;;;16.65;4.50;;;6.00;99.90;;;;;;4976107;28;20069;-60
2022/01/28 04:28:58;;;;;;;21.42;5.00;;;6.10;99.90;;;;;;5005484;28;20467;-60
2022/01/28 04:31:23;;;;;;;19.90;5.40;;;6.20;99.90;;;;;;4975173;28;20042;-60
2022/01/28 04:33:52;;;;;;;20.45;4.90;;;6.00;99.90;;;;;;4975339;28;20038;-59
2022/01/28 04:36:19;;;;;;;17.38;4.60;;;6.10;99.90;;;;;;4974755;28;20057;-59
2022/01/28 04:38:58;;;;;;;21.17;6.03;;;6.10;99.90;;;;;;4974701;28;20097;-59
2022/01/28 04:41:37;;;;;;;15.88;4.93;;;6.10;99.90;;;;;;4959178;28;20046;-60
2022/01/28 04:44:13;;;;;;;22.63;4.78;;;;;;;;;;4982044;28;20116;-60
2022/01/28 04:49:39;;;;;;;17.27;5.05;;;;;;;;;;4994331;28;19918;-60
2022/01/28 04:56:57;;;;;;;36.00;6.78;;;;;;;;;;4993113;28;20118;-60
2022/01/28 05:11:01;;;;;;;20.58;5.22;;;;;;;;;;5011940;28;20045;-59
2022/01/28 05:29:19;;;;;;;22.50;5.57;;;;;;;;;;4993586;28;20110;-60
2022/01/28 05:31:46;;;;;;;18.25;4.88;;;;;;;;;;4992272;28;20049;-59
2022/01/28 05:34:13;;;;;;;20.15;4.68;;;;;;;;;;5011316;28;20124;-59
2022/01/28 05:36:39;;;;;;;21.75;5.22;;;;;;;;;;4993164;28;20482;-59
2022/01/28 05:39:05;;;;;;;21.77;5.28;;;;;;;;;;4993110;28;20046;-59
2022/01/28 05:41:31;;;;;;;16.67;4.85;;;5.40;99.90;;;;;;4986322;28;20125;-60
2022/01/28 05:43:56;;;;;;;22.48;6.00;;;5.30;99.90;;;;;;4991192;28;20138;-59
2022/01/28 05:46:22;;;;;;;20.02;4.85;;;5.30;99.90;;;;;;4990945;28;20046;-59
2022/01/28 05:48:48;;;;;;;17.98;4.43;;;5.20;99.90;;;;;;4991007;28;20043;-59
2022/01/28 05:51:14;;;;;;;19.05;5.47;;;5.20;99.90;;;;;;4991311;28;20132;-59
2022/01/28 05:53:39;;;;;;;15.52;4.97;;;5.20;99.90;;;;;;4990068;28;20046;-59
2022/01/28 05:56:05;;;;;;;19.77;5.93;;;6.50;99.90;;;;;;5006441;28;20049;-59
2022/01/28 05:58:31;;;;;;;19.95;4.30;;;5.20;99.90;;;;;;5006215;28;20479;-59
2022/01/28 06:00:56;;;;;;;21.63;4.35;;;4.90;99.90;;;;;;4990401;28;20099;-59
2022/01/28 06:03:22;;;;;;;32.38;4.70;;;5.20;99.90;;;;;;5006357;28;20047;-59
2022/01/28 06:05:48;;;;;;;12.60;5.05;;;5.20;99.90;;;;;;4990692;28;20034;-60
2022/01/28 06:08:14;;;;;;;23.13;4.43;;;5.20;99.90;;;;;;4973079;28;20121;-59
2022/01/28 06:10:40;;;;;;;19.52;5.07;;;5.20;99.90;;;;;;4988849;28;20501;-59
2022/01/28 06:13:05;;;;;;;17.95;4.32;;;5.20;99.90;;;;;;4976922;28;20505;-59
2022/01/28 06:15:31;;;;;;;15.82;3.75;;;5.20;99.90;;;;;;4975843;28;20462;-59
2022/01/28 06:17:57;;;;;;;20.15;4.28;;;5.20;99.90;;;;;;4992899;28;20119;-59
2022/01/28 06:20:23;;;;;;;23.13;5.28;;;5.10;99.90;;;;;;5010893;28;20042;-59
2022/01/28 06:22:49;;;;;;;19.30;5.10;;;5.10;99.90;;;;;;4975672;28;20099;-59
2022/01/28 06:25:15;;;;;;;19.13;4.95;;;5.10;99.90;;;;;;4978578;28;20054;-59
2022/01/28 06:27:43;;;;;;;15.60;4.18;;;4.80;99.90;;;;;;4973083;28;20053;-60
2022/01/28 06:30:09;;;;;;;17.35;4.53;;;4.80;99.90;;;;;;4990011;28;20042;-60
2022/01/28 06:32:35;;;;;;;18.55;4.32;;;4.80;99.90;;;;;;4973091;28;20058;-60
2022/01/28 06:35:07;;;;;;;19.38;5.15;;;5.10;99.90;;;;;;4973039;28;20046;-60
2022/01/28 06:37:36;;;;;;;30.70;6.13;;;5.10;99.90;;;;;;4973299;28;20129;-60
2022/01/28 06:40:04;;;;;;;17.10;3.78;;;5.20;99.90;;;;;;4988244;28;20414;-60
2022/01/28 06:42:30;;;;;;;23.17;4.25;;;5.10;99.90;;;;;;4991462;28;20086;-59
2022/01/28 06:44:55;;;;;;;18.90;4.55;;;5.20;99.90;;;;;;4992550;28;20179;-59
2022/01/28 06:47:21;;;;;;;22.48;4.57;;;5.20;99.90;;;;;;5010493;28;20064;-60
2022/01/28 06:49:47;;;;;;;26.17;4.50;;;5.20;99.90;;;;;;4991415;28;20509;-60
2022/01/28 06:52:12;;;;;;;15.30;3.88;;;5.20;99.90;;;;;;4976559;28;20046;-60
2022/01/28 06:54:38;;;;;;;23.65;5.50;;;5.20;99.90;;;;;;4992280;28;20074;-60
2022/01/28 06:57:04;;;;;;;14.10;4.53;;;5.20;99.90;;;;;;4982234;28;20054;-60
2022/01/28 06:59:30;;;;;;;19.02;4.97;;;5.10;99.90;;;;;;4990022;28;20137;-60
2022/01/28 07:01:55;;;;;;;20.75;5.82;;;5.10;99.90;;;;;;5005206;28;20050;-60
2022/01/28 07:04:21;;;;;;;17.67;4.65;;;4.90;99.90;;;;;;4989864;28;20045;-60
2022/01/28 07:06:46;;;;;;;16.85;4.93;;;4.90;99.90;;;;;;5004147;28;20049;-60
2022/01/28 07:09:12;;;;;;;15.43;4.82;;;4.90;99.90;;;;;;4990115;28;20046;-60
2022/01/28 07:11:38;;;;;;;22.33;5.78;;;4.80;99.90;;;;;;4971685;28;20096;-60
2022/01/28 07:14:04;;;;;;;23.52;4.88;;;4.80;99.90;;;;;;4973271;28;20045;-59
2022/01/28 07:16:32;;;;;;;25.08;6.32;;;4.70;99.90;;;;;;4972761;28;20042;-60
2022/01/28 07:18:58;;;;;;;19.58;4.70;;;6.00;99.90;;;;;;4989404;28;20390;-60
2022/01/28 07:21:23;;;;;;;20.90;5.72;;;4.80;99.90;;;;;;4992635;28;20039;-60
2022/01/28 07:23:50;;;;;;;17.98;5.43;;;4.70;99.90;;;;;;5003601;28;20038;-61
2022/01/28 07:26:18;;;;;;;25.90;4.65;;;4.60;99.90;;;;;;5111986;28;20131;-61
2022/01/28 07:28:45;;;;;;;15.63;4.60;;;4.50;99.90;;;;;;5071720;28;20046;-60
2022/01/28 07:31:14;;;;;;;16.23;5.05;;;4.40;99.90;;;;;;4981055;28;20084;-60
2022/01/28 07:33:41;;;;;;;24.58;6.65;;;4.80;99.90;;;;;;5008248;28;20045;-60
2022/01/28 07:36:07;;;;;;;18.25;4.43;;;4.70;99.90;;;;;;5009706;28;20049;-60
2022/01/28 07:38:33;;;;;;;14.88;5.47;;;4.70;99.90;;;;;;5048073;28;20060;-60
2022/01/28 07:40:59;;;;;;;18.50;5.57;;;4.70;99.90;;;;;;4991041;28;20045;-60
2022/01/28 07:43:25;;;;;;;17.92;5.10;;;5.30;99.90;;;;;;4986425;28;20042;-60
2022/01/28 07:45:52;;;;;;;22.88;6.03;;;;;;;;;;4975515;28;20049;-60
2022/01/28 07:48:18;;;;;;;26.27;5.70;;;;;;;;;;4974905;28;20082;-61
2022/01/28 07:50:44;;;;;;;16.90;4.97;;;;;;;;;;4970205;28;20089;-60
2022/01/28 07:53:14;;;;;;;22.48;5.50;;;;;;;;;;5002570;28;20057;-60
2022/01/28 07:55:40;;;;;;;20.73;5.45;;;;;;;;;;4990780;28;20141;-60
2022/01/28 07:58:06;;;;;;;19.90;4.50;;;;;;;;;;4977295;28;20088;-60
2022/01/28 08:00:32;;;;;;;17.50;5.05;;;;;;;;;;5004822;28;20081;-60
2022/01/28 08:02:58;;;;;;;17.35;4.57;;;;;;;;;;4990575;28;20053;-60
2022/01/28 08:05:24;;;;;;;23.02;5.63;;;;;;;;;;5011840;28;20398;-60
2022/01/28 08:07:51;;;;;;;21.48;4.93;;;;;;;;;;5077711;28;20402;-60
2022/01/28 08:10:17;;;;;;;16.35;5.40;;;;;;;;;;5050356;28;20091;-60
2022/01/28 08:12:47;;;;;;;25.20;6.03;;;;;;;;;;4991285;28;20054;-60
2022/01/28 08:15:14;;;;;;;21.00;4.90;;;;;;;;;;4976584;28;20054;-60
2022/01/28 08:17:40;;;;;;;17.63;5.65;;;;;;;;;;4991286;28;20046;-60
2022/01/28 08:20:06;;;;;;;16.23;5.47;;;4.50;99.90;;;;;;4997241;28;20084;-60
2022/01/28 08:22:32;;;;;;;25.77;6.45;;;4.40;99.90;;;;;;5004386;28;20113;-60
2022/01/28 08:24:57;;;;;;;22.63;5.82;;;4.10;99.90;;;;;;4981172;28;20038;-60
2022/01/28 08:27:23;;;;;;;21.38;5.10;;;4.40;99.90;;;;;;5011074;28;20053;-60
2022/01/28 08:29:49;;;;;;;18.15;5.28;;;4.40;99.90;;;;;;5000989;28;20071;-60
2022/01/28 08:32:14;;;;;;;21.80;5.57;;;4.40;99.90;;;;;;4988645;28;20467;-60
2022/01/28 08:34:40;;;;;;;22.98;5.18;;;4.40;99.90;;;;;;4973169;28;20149;-60
2022/01/28 08:37:07;;;;;;;17.63;4.75;;;;;;;;;;5007335;28;20150;-60
2022/01/28 08:39:35;;;;;;;23.48;4.85;;;;;;;;;;4974694;28;20058;-59
2022/01/28 08:42:01;;;;;;;19.02;5.18;;;;;;;;;;5006149;28;20457;-60
2022/01/28 08:44:28;;;;;;;21.88;5.57;;;;;;;;;;4995015;28;20489;-60
2022/01/28 08:46:54;;;;;;;30.80;5.72;;;;;;;;;;4986142;28;20129;-60
2022/01/28 08:49:19;;;;;;;25.65;5.43;;;4.90;99.90;;;;;;4976771;28;20053;-60
2022/01/28 08:51:45;;;;;;;20.05;5.65;;;4.80;99.90;;;;;;5032728;28;20058;-60
2022/01/28 08:54:12;;;;;;;22.02;5.95;;;;;;;;;;5003263;28;20046;-60
2022/01/28 08:56:37;;;;;;;20.83;5.38;;;5.00;99.90;;;;;;4988674;28;20046;-60
2022/01/28 08:59:03;;;;;;;22.35;5.10;;;4.90;99.90;;;;;;4987306;28;20478;-60
2022/01/28 09:01:30;;;;;;;22.73;5.43;;;4.90;99.90;;;;;;4974400;28;20159;-60
2022/01/28 09:03:56;;;;;;;21.35;4.85;;;5.10;99.90;;;;;;4987923;28;20049;-60
2022/01/28 09:06:21;;;;;;;29.00;5.18;;;5.10;99.90;;;;;;4991774;28;20498;-61
2022/01/28 09:08:49;;;;;;;20.77;5.18;;;5.10;99.90;;;;;;4987540;28;20046;-60
2022/01/28 09:13:50;;;;;;;20.80;5.63;;;;;;;;;;4977944;28;20091;-61
2022/01/28 09:16:17;;;;;;;19.77;5.68;;;;;;;;;;4981116;28;20050;-61
2022/01/28 09:18:43;;;;;;;20.48;4.38;;;;;;;;;;4973676;28;20058;-61
2022/01/28 09:21:10;;;;;;;19.23;5.18;;;;;;;;;;5077129;28;20511;-60
2022/01/28 09:23:36;;;;;;;14.63;4.30;;;;;;;;;;4998110;28;20034;-60
2022/01/28 09:26:02;;;;;;;18.73;4.50;;;;;;;;;;4983955;28;20548;-60
2022/01/28 09:28:28;;;;;;;24.88;4.97;;;;;;;;;;4972859;28;20092;-60
2022/01/28 09:30:54;;;;;;;14.05;4.68;;;5.80;99.90;;;;;;4973562;28;20064;-60
2022/01/28 09:33:20;;;;;;;17.75;4.43;;;5.70;99.90;;;;;;4973975;28;20050;-60
2022/01/28 09:35:45;;;;;;;15.63;4.13;;;5.70;99.90;;;;;;4973642;28;20046;-60
2022/01/28 09:38:11;;;;;;;20.58;5.22;;;5.70;99.90;;;;;;4973570;28;20051;-60
2022/01/28 09:40:38;;;;;;;18.90;4.65;;;5.80;99.90;;;;;;4991024;28;20046;-60
2022/01/28 09:43:06;;;;;;;19.95;4.75;;;5.80;99.90;;;;;;4974169;28;20475;-60
2022/01/28 09:45:32;;;;;;;19.17;5.47;;;5.80;99.90;;;;;;4972861;28;20519;-60
2022/01/28 09:47:58;;;;;;;21.65;5.03;;;5.50;99.90;;;;;;4991053;28;20053;-60
2022/01/28 09:50:28;;;;;;;16.38;4.57;;;5.80;99.90;;;;;;4974106;28;20066;-60
2022/01/28 09:52:54;;;;;;;23.40;5.80;;;5.80;99.90;;;;;;4972818;28;20082;-60
2022/01/28 09:55:22;;;;;;;23.58;4.95;;;5.80;99.90;;;;;;4957910;28;20095;-60
2022/01/28 09:57:57;;;;;;;21.40;5.15;;;5.80;99.90;;;;;;4990753;28;20121;-60
2022/01/28 10:00:25;;;;;;;17.70;5.00;;;5.80;99.90;;;;;;4973136;28;20091;-60
2022/01/28 10:03:12;;;;;;;23.45;6.20;;;5.80;99.90;;;;;;4990864;28;20049;-60
2022/01/28 10:05:44;;;;;;;23.58;6.57;;;5.90;99.90;;;;;;4973203;28;20168;-60
2022/01/28 10:08:26;;;;;;;27.00;5.57;;;6.10;99.90;;;;;;4972864;28;20103;-60
2022/01/28 10:11:06;;;;;;;19.15;4.00;;;6.10;99.90;;;;;;4990876;28;20049;-60
2022/01/28 10:13:44;;;;;;;19.83;5.05;;;;;;;;;;4972787;28;20047;-60
2022/01/28 10:16:13;;;;;;;15.38;3.88;;;6.30;99.90;;;;;;4957437;28;20042;-60
2022/01/28 10:18:41;;;;;;;22.90;6.50;;;;;;;;;;4972915;28;20084;-60
2022/01/28 10:21:15;;;;;;;17.83;4.88;;;;;;;;;;4990107;28;20038;-60
2022/01/28 10:23:41;;;;;;;11.20;4.00;;;6.50;99.90;;;;;;4972821;28;20510;-60
2022/01/28 10:26:08;;;;;;;18.25;3.65;;;;;;;;;;4973268;28;20087;-60
2022/01/28 10:28:33;;;;;;;17.80;6.28;;;6.90;99.90;;;;;;4972488;28;20054;-60
2022/01/28 10:31:04;;;;;;;24.92;4.80;;;6.80;99.90;;;;;;4990628;28;20035;-60
2022/01/28 10:33:29;;;;;;;15.77;3.55;;;7.00;99.90;;;;;;4973163;28;20075;-60
2022/01/28 10:35:58;;;;;;;14.93;4.53;;;7.00;99.90;;;;;;4972298;28;20054;-60
2022/01/28 10:38:42;;;;;;;11.07;3.50;;;7.10;99.90;;;;;;4957302;28;20046;-60
2022/01/28 10:41:16;;;;;;;18.40;3.80;;;7.20;99.90;;;;;;4990964;28;20390;-60
2022/01/28 10:43:44;;;;;;;20.77;4.43;;;7.00;99.90;;;;;;4956671;28;20047;-60
2022/01/28 10:46:10;;;;;;;18.17;5.07;;;6.90;99.90;;;;;;4990620;28;20038;-60
2022/01/28 10:49:08;;;;;;;17.23;3.00;;;6.90;99.90;;;;;;4971809;28;20127;-60
2022/01/28 10:51:43;;;;;;;12.68;3.55;;;7.00;99.90;;;;;;4978171;28;20567;-60
2022/01/28 10:54:14;;;;;;;20.42;4.20;;;7.20;99.90;;;;;;4957497;28;20429;-60
2022/01/28 10:56:58;;;;;;;17.33;4.25;;;6.80;99.90;;;;;;4989231;28;20509;-60
2022/01/28 10:59:29;;;;;;;14.27;4.05;;;7.00;99.90;;;;;;4990493;28;20038;-60
2022/01/28 11:01:55;;;;;;;14.15;3.58;;;7.40;99.90;;;;;;4972760;28;20125;-60
2022/01/28 11:04:22;;;;;;;19.45;4.57;;;6.90;99.90;;;;;;4972549;28;20074;-60
2022/01/28 11:06:49;;;;;;;11.00;3.00;;;;;;;;;;4989580;28;20121;-60
2022/01/28 11:09:17;;;;;;;16.05;3.58;;;7.00;99.90;;;;;;4972795;28;20049;-60
2022/01/28 11:11:44;;;;;;;14.88;3.78;;;7.00;99.90;;;;;;4972012;28;20077;-60
2022/01/28 11:14:10;;;;;;;14.27;3.28;;;7.10;99.90;;;;;;4972901;28;20084;-60
2022/01/28 11:16:36;;;;;;;13.43;3.38;;;7.10;99.90;;;;;;4989010;28;20100;-60
2022/01/28 11:19:03;;;;;;;14.90;3.53;;;7.10;99.90;;;;;;4990145;28;20038;-60
2022/01/28 11:21:55;;;;;;;12.82;4.50;;;7.30;99.90;;;;;;4972308;28;20047;-60
2022/01/28 11:24:55;;;;;;;15.68;3.63;;;7.00;99.90;;;;;;4956221;28;20042;-60
2022/01/28 11:27:34;;;;;;;18.38;3.92;;;8.00;99.90;;;;;;4972577;28;20050;-60
2022/01/28 11:30:18;;;;;;;14.55;3.17;;;7.00;99.90;;;;;;4959575;28;20050;-60
2022/01/28 11:33:03;;;;;;;27.13;4.70;;;7.00;99.90;;;;;;4992289;28;20383;-60
2022/01/28 11:35:32;;;;;;;15.30;3.22;;;7.20;99.90;;;;;;4993071;28;20479;-60
2022/01/28 11:38:04;;;;;;;18.77;3.67;;;6.90;99.90;;;;;;4974908;28;20072;-60
2022/01/28 11:40:43;;;;;;;17.65;4.13;;;6.90;99.90;;;;;;4975854;28;20054;-60
2022/01/28 11:43:20;;;;;;;13.93;3.72;;;6.90;99.90;;;;;;4975900;28;20046;-60
2022/01/28 11:45:46;;;;;;;15.63;3.63;;;6.90;99.90;;;;;;4974466;28;20062;-60
2022/01/28 11:48:12;;;;;;;16.35;3.70;;;7.00;99.90;;;;;;4975849;28;20091;-60
2022/01/28 11:50:38;;;;;;;10.30;3.63;;;6.90;99.90;;;;;;4992375;28;20410;-60
2022/01/28 11:53:21;;;;;;;19.17;4.30;;;7.00;99.90;;;;;;4974866;28;20042;-60
2022/01/28 11:56:00;;;;;;;11.05;3.10;;;7.10;99.90;;;;;;4975287;28;20046;-60
2022/01/28 11:58:57;;;;;;;14.70;3.58;;;7.20;99.90;;;;;;4975435;28;20050;-60
2022/01/28 12:01:24;;;;;;;18.58;3.88;;;7.20;99.90;;;;;;4994489;28;20505;-60
2022/01/28 12:03:50;;;;;;;22.10;5.15;;;7.20;99.90;;;;;;4975258;28;20395;-60
2022/01/28 12:06:17;;;;;;;10.65;4.05;;;7.30;99.90;;;;;;4974692;28;20046;-60
2022/01/28 12:08:44;;;;;;;16.80;3.63;;;7.30;99.90;;;;;;4974854;28;20402;-60
2022/01/28 12:11:12;;;;;;;23.40;5.20;;;7.20;99.90;;;;;;4959707;28;20391;-60
2022/01/28 12:14:01;;;;;;;12.77;3.15;;;7.40;99.90;;;;;;4974148;28;20050;-60
2022/01/28 12:16:41;;;;;;;16.67;4.15;;;7.40;99.90;;;;;;4959118;28;20046;-60
2022/01/28 12:19:22;;;;;;;20.08;4.47;;;7.30;99.90;;;;;;4975324;28;20122;-60
2022/01/28 12:22:10;;;;;;;16.75;3.72;;;7.40;99.90;;;;;;4973988;28;20039;-60
2022/01/28 12:24:37;;;;;;;13.13;2.83;;;7.40;99.90;;;;;;4974677;28;20051;-60
2022/01/28 12:27:07;;;;;;;14.25;3.72;;;7.40;99.90;;;;;;4991818;28;20053;-60
2022/01/28 12:29:35;;;;;;;15.05;5.10;;;7.50;99.90;;;;;;4974891;28;20042;-60
2022/01/28 12:32:03;;;;;;;18.30;4.07;;;7.60;99.90;;;;;;4975052;28;20046;-60
2022/01/28 12:34:28;;;;;;;11.38;2.35;;;7.70;99.90;;;;;;4974093;28;20049;-60
2022/01/28 12:36:58;;;;;;;15.52;4.20;;;7.80;99.90;;;;;;4992203;28;20038;-60
2022/01/28 12:39:43;;;;;;;16.90;3.85;;;7.80;99.90;;;;;;4975130;28;20126;-60
2022/01/28 12:42:22;;;;;;;18.40;3.85;;;7.80;99.90;;;;;;4991803;28;20046;-60
2022/01/28 12:44:53;;;;;;;18.40;4.00;;;7.70;99.90;;;;;;4974487;28;20049;-60
2022/01/28 12:47:19;;;;;;;14.95;3.45;;;7.50;99.90;;;;;;4992378;28;20051;-60
2022/01/28 12:49:46;;;;;;;16.35;4.30;;;7.70;99.90;;;;;;4990742;28;20047;-60
2022/01/28 12:52:12;;;;;;;13.95;3.05;;;8.70;99.90;;;;;;4975275;28;20187;-60
2022/01/28 12:54:44;;;;;;;16.08;3.88;;;7.80;99.90;;;;;;4991812;28;20402;-60
2022/01/28 12:57:12;;;;;;;17.77;3.75;;;7.80;99.90;;;;;;4974101;28;20057;-60
2022/01/28 12:59:40;;;;;;;12.98;4.53;;;7.80;99.90;;;;;;4974195;28;20050;-60
2022/01/28 13:02:06;;;;;;;16.38;3.75;;;8.30;99.90;;;;;;4974151;28;20069;-60
2022/01/28 13:04:51;;;;;;;11.93;3.38;;;7.90;99.90;;;;;;4992048;28;20085;-60
2022/01/28 13:09:56;;;;;;;10.83;2.83;;;7.90;99.90;;;;;;4973909;28;19928;-60
2022/01/28 13:12:31;;;;;;;12.68;3.20;;;7.90;99.90;;;;;;4974732;28;20091;-60
2022/01/28 13:15:06;;;;;;;14.65;2.88;;;7.90;99.90;;;;;;4974654;28;20053;-60
2022/01/28 13:17:31;;;;;;;10.80;3.37;;;7.90;99.90;;;;;;4973024;28;20042;-60
2022/01/28 13:19:59;;;;;;;26.58;3.83;;;8.20;99.90;;;;;;4991678;28;20095;-60
2022/01/28 13:22:28;;;;;;;16.25;2.78;;;7.90;99.90;;;;;;4974389;28;20121;-60
2022/01/28 13:24:56;;;;;;;13.32;2.80;;;7.80;99.90;;;;;;4990528;28;20133;-60
2022/01/28 13:27:23;;;;;;;40.30;4.70;;;7.60;99.90;;;;;;4991763;28;20273;-60
2022/01/28 13:29:52;;;;;;;20.83;4.47;;;7.60;99.90;;;;;;4991161;28;20491;-60
2022/01/28 13:32:40;;;;;;;13.52;3.45;;;7.20;99.90;;;;;;4973331;28;20103;-60
2022/01/28 13:35:12;;;;;;;15.45;4.22;;;7.40;99.90;;;;;;4974292;28;20042;-60
2022/01/28 13:37:49;;;;;;;12.15;3.88;;;7.30;99.90;;;;;;4956649;28;20483;-60
2022/01/28 13:40:18;;;;;;;25.42;3.75;;;7.30;99.90;;;;;;4974212;28;20042;-60
2022/01/28 13:43:00;;;;;;;15.02;3.20;;;7.20;99.90;;;;;;4973583;28;20049;-60
2022/01/28 13:45:28;;;;;;;8.48;2.67;;;7.20;99.90;;;;;;4973070;28;20050;-60
2022/01/28 13:47:54;;;;;;;14.15;2.63;;;7.20;99.90;;;;;;4973765;28;20058;-60
2022/01/28 13:50:29;;;;;;;11.05;3.05;;;7.20;99.90;;;;;;5002422;28;20187;-60
2022/01/28 13:56:04;;;;;;;13.98;3.67;;;7.20;99.90;;;;;;5052250;28;20117;-60
2022/01/28 13:58:42;;;;;;;11.27;2.85;;;7.20;99.90;;;;;;5052725;28;20053;-60
2022/01/28 14:01:08;;;;;;;12.10;3.42;;;7.20;99.90;;;;;;5052109;28;20486;-60
2022/01/28 14:04:03;;;;;;;16.10;3.10;;;7.20;99.90;;;;;;5051936;28;20073;-60
2022/01/28 14:06:34;;;;;;;12.77;3.05;;;7.30;99.90;;;;;;5051234;28;20084;-60
2022/01/28 14:09:06;;;;;;;8.50;2.55;;;7.20;99.90;;;;;;5051642;28;20049;-60
2022/01/28 14:11:42;;;;;;;12.10;2.95;;;7.20;99.90;;;;;;5051690;28;20094;-60
2022/01/28 14:14:34;;;;;;;15.13;3.17;;;7.20;99.90;;;;;;5052947;28;20479;-60
2022/01/28 14:17:05;;;;;;;13.90;3.15;;;7.30;99.90;;;;;;5051680;28;20102;-60
2022/01/28 14:19:34;;;;;;;12.77;3.13;;;7.20;99.90;;;;;;5050799;28;20052;-60
2022/01/28 14:22:01;;;;;;;16.30;3.00;;;7.30;99.90;;;;;;5056685;28;20498;-60
2022/01/28 14:24:30;;;;;;;14.40;2.75;;;7.20;99.90;;;;;;5066541;28;20048;-59
2022/01/28 14:27:10;;;;;;;10.15;2.92;;;7.30;99.90;;;;;;5052895;28;20105;-60
2022/01/28 14:32:19;;;;;;;12.07;3.22;;;7.50;99.90;;;;;;5069026;28;20116;-60
2022/01/28 14:34:47;;;;;;;17.50;3.58;;;7.40;99.90;;;;;;5068112;28;20040;-60